Time;durP1;ratioP1;P1;durP2;ratioP2;P2;SDS_P1;SDS_P2;PMS_P1;PMS_P2;Temp;Humidity;BMP_temperature;BMP_pressure;BME280_temperature;BME280_humidity;BME280_pressure;Samples;Min_cycle;Max_cycle;Signal;HPM_P1;HPM_P2
2021/06/20 00:01:44;;;;;;;4.47;2.07;;;;;;;21.03;63.60;100185.01;125187;1093;64300;-81
2021/06/20 00:04:11;;;;;;;3.93;2.40;;;;;;;21.03;63.57;100176.91;125085;1093;64329;-82
2021/06/20 00:06:39;;;;;;;3.25;2.35;;;;;;;21.02;64.03;100174.47;125015;1092;64295;-81
2021/06/20 00:09:08;;;;;;;3.10;2.57;;;;;;;21.00;64.05;100163.16;125003;1093;64386;-80
2021/06/20 00:11:37;;;;;;;3.07;2.17;;;;;;;21.00;64.28;100158.56;125117;1093;64214;-80
2021/06/20 00:14:07;;;;;;;6.67;2.50;;;;;;;20.99;64.00;100151.53;125223;1093;64300;-81
2021/06/20 00:16:35;;;;;;;3.43;2.70;;;;;;;21.01;64.48;100144.00;125163;1093;64352;-80
2021/06/20 00:19:03;;;;;;;2.60;2.10;;;;;;;21.01;64.73;100141.30;125198;1092;64281;-81
2021/06/20 00:21:31;;;;;;;4.70;2.40;;;;;;;21.03;64.73;100144.55;125304;1093;64285;-80
2021/06/20 00:23:58;;;;;;;4.07;2.50;;;;;;;21.05;64.29;100147.81;125067;1093;64434;-81
2021/06/20 00:26:25;;;;;;;3.20;2.13;;;;;;;21.07;64.53;100147.56;125247;1093;64920;-81
2021/06/20 00:28:52;;;;;;;3.27;2.77;;;;;;;21.08;64.65;100152.70;125170;1092;64233;-81
2021/06/20 00:31:20;;;;;;;5.27;2.40;;;;;;;21.10;64.72;100155.95;125344;1093;64304;-80
2021/06/20 00:33:47;;;;;;;3.30;2.70;;;;;;;21.10;64.82;100139.78;125360;1093;64406;-80
2021/06/20 00:36:14;;;;;;;2.73;1.87;;;;;;;21.11;65.34;100135.99;126087;1092;64344;-81
2021/06/20 00:38:41;;;;;;;4.27;2.60;;;;;;;21.13;64.99;100139.25;125701;1093;64285;-82
2021/06/20 00:41:08;;;;;;;4.80;2.50;;;;;;;21.15;65.45;100137.11;125394;1091;64339;-80
2021/06/20 00:43:35;;;;;;;5.25;3.05;;;;;;;21.17;65.45;100142.25;125197;1093;64302;-81
2021/06/20 00:46:05;;;;;;;4.47;3.10;;;;;;;21.19;65.89;100164.38;125477;1093;64202;-81
2021/06/20 00:48:32;;;;;;;6.07;3.00;;;;;;;21.22;66.17;100168.44;125252;1093;62501;-80
2021/06/20 00:50:59;;;;;;;5.13;2.90;;;;;;;21.24;66.23;100183.29;125313;1093;64276;-80
2021/06/20 00:53:26;;;;;;;3.90;2.90;;;;;;;21.28;66.35;100188.98;125296;1093;64304;-81
2021/06/20 00:55:57;;;;;;;4.50;3.50;;;;;;;21.32;66.34;100184.70;125449;1093;64301;-81
2021/06/20 00:58:24;;;;;;;4.10;3.30;;;;;;;21.34;66.10;100179.87;125214;1092;64297;-82
2021/06/20 01:00:51;;;;;;;6.10;3.40;;;;;;;21.36;66.18;100165.04;125327;1093;64403;-80
2021/06/20 01:03:18;;;;;;;5.17;3.27;;;;;;;21.38;65.91;100162.89;125253;1092;64759;-81
2021/06/20 01:05:45;;;;;;;4.73;3.40;;;;;;;21.38;65.93;100172.88;125393;1093;64312;-81
2021/06/20 01:08:13;;;;;;;6.87;3.87;;;;;;;21.37;66.21;100171.23;125441;1092;64393;-82
2021/06/20 01:10:41;;;;;;;4.60;3.60;;;;;;;21.35;66.26;100167.98;125260;1093;64246;-81
2021/06/20 01:13:11;;;;;;;4.40;3.50;;;;;;;21.33;66.45;100170.94;125086;1093;64215;-80
2021/06/20 01:15:40;;;;;;;3.57;2.90;;;;;;;21.31;66.72;100172.27;125205;1093;64348;-82
2021/06/20 01:18:09;;;;;;;4.00;3.50;;;;;;;21.29;67.24;100158.23;125088;1093;64288;-81
2021/06/20 01:20:38;;;;;;;5.77;3.67;;;;;;;21.27;67.05;100153.12;125312;1093;64310;-81
2021/06/20 01:23:06;;;;;;;4.63;3.47;;;;;;;21.27;66.97;100139.63;125253;1093;64289;-81
2021/06/20 01:25:34;;;;;;;6.33;3.53;;;;;;;21.26;67.58;100140.69;125131;1093;64790;-80
2021/06/20 01:28:09;;;;;;;4.17;3.40;;;;;;;21.25;67.52;100136.38;124945;1093;64262;-80
2021/06/20 01:30:39;;;;;;;6.70;3.90;;;;;;;21.25;67.65;100135.54;125034;1092;64249;-80
2021/06/20 01:33:09;;;;;;;5.20;3.35;;;;;;;21.25;67.83;100132.84;125009;1093;64324;-81
2021/06/20 01:35:37;;;;;;;5.37;3.90;;;;;;;21.25;67.91;100130.14;125295;1093;64285;-79
2021/06/20 01:38:08;;;;;;;6.40;3.47;;;;;;;21.24;67.99;100131.23;126607;1093;64004;-81
2021/06/20 01:40:35;;;;;;;3.83;3.17;;;;;;;21.25;68.09;100130.98;126950;1093;64285;-82
2021/06/20 01:43:02;;;;;;;7.20;3.37;;;;;;;21.26;68.21;100120.99;125265;1092;64297;-83
2021/06/20 01:45:30;;;;;;;4.43;3.60;;;;;;;21.25;68.11;100113.95;125291;1093;64242;-81
2021/06/20 01:47:59;;;;;;;3.70;2.97;;;;;;;21.27;68.02;100115.34;125193;1093;65107;-80
2021/06/20 01:50:27;;;;;;;4.00;3.27;;;;;;;21.31;68.34;100118.31;125302;1093;64446;-80
2021/06/20 01:53:08;;;;;;;4.67;3.57;;;;;;;21.33;68.58;100116.98;125219;1093;64351;-80
2021/06/20 01:55:37;;;;;;;4.63;3.40;;;;;;;21.34;68.52;100118.63;125227;1093;64282;-80
2021/06/20 01:58:09;;;;;;;5.97;3.53;;;;;;;21.35;68.37;100104.05;125201;1093;64272;-80
2021/06/20 02:00:38;;;;;;;6.20;4.07;;;;;;;21.36;68.52;100092.19;125230;1092;64216;-80
2021/06/20 02:03:27;;;;;;;5.80;3.70;;;;;;;21.37;68.15;100090.30;125395;1093;64277;-80
2021/06/20 02:05:59;;;;;;;6.67;3.90;;;;;;;21.38;68.15;100076.55;125256;1092;64237;-81
2021/06/20 02:08:27;;;;;;;5.37;3.43;;;;;;;21.40;67.85;100065.51;125261;1093;64209;-81
2021/06/20 02:10:55;;;;;;;7.97;3.87;;;;;;;21.42;68.59;100063.39;125072;1093;64399;-80
2021/06/20 02:13:27;;;;;;;5.53;3.30;;;;;;;21.43;68.03;100048.81;125141;1093;64403;-79
2021/06/20 02:15:55;;;;;;;6.87;3.57;;;;;;;21.44;68.12;100046.92;125115;1091;64402;-80
2021/06/20 02:18:22;;;;;;;3.77;3.30;;;;;;;21.43;68.16;100035.32;125717;1092;64288;-81
2021/06/20 02:20:50;;;;;;;4.63;3.43;;;;;;;21.45;67.96;100022.38;125203;1093;64670;-81
2021/06/20 02:23:17;;;;;;;5.10;3.43;;;;;;;21.47;68.07;100014.83;125125;1092;64424;-80
2021/06/20 02:25:44;;;;;;;5.00;3.77;;;;;;;21.48;68.08;100021.84;125595;1093;64293;-80
2021/06/20 02:28:11;;;;;;;7.17;3.10;;;;;;;21.51;68.75;100024.03;127890;1093;64136;-81
2021/06/20 02:30:38;;;;;;;5.37;3.77;;;;;;;21.51;68.51;100029.42;127519;1093;64298;-81
2021/06/20 02:33:05;;;;;;;6.07;3.97;;;;;;;21.52;68.29;100039.13;125363;1092;64310;-79
2021/06/20 02:35:32;;;;;;;5.53;4.10;;;;;;;21.53;68.37;100034.56;125063;1092;64214;-79
2021/06/20 02:37:59;;;;;;;6.47;3.63;;;;;;;21.52;68.68;100036.43;125273;1092;64400;-80
2021/06/20 02:40:26;;;;;;;4.45;3.40;;;;;;;21.51;69.11;100025.92;125191;1092;64217;-79
2021/06/20 02:42:53;;;;;;;5.17;3.40;;;;;;;21.50;69.42;100021.58;125285;1092;65402;-80
2021/06/20 02:45:22;;;;;;;6.63;4.57;;;;;;;21.47;69.78;100020.23;125249;1092;64387;-79
2021/06/20 02:47:51;;;;;;;6.10;4.25;;;;;;;21.47;70.37;100024.82;125417;1093;64277;-79
2021/06/20 02:50:19;;;;;;;5.27;3.87;;;;;;;21.46;70.08;100032.08;125198;1093;64236;-82
2021/06/20 02:52:46;;;;;;;4.40;4.00;;;;;;;21.44;70.81;100046.92;125021;1093;64408;-80
2021/06/20 02:55:13;;;;;;;6.17;3.80;;;;;;;21.43;71.58;100137.05;125195;1093;64227;-80
2021/06/20 02:57:42;;;;;;;8.63;3.70;;;;;;;21.31;72.77;100250.52;125085;1092;64256;-80
2021/06/20 03:00:10;;;;;;;8.73;3.90;;;;;;;21.17;73.87;100247.44;125217;1092;64303;-80
2021/06/20 03:02:37;;;;;;;8.23;3.33;;;;;;;20.97;73.81;100256.14;125102;1093;64297;-79
2021/06/20 03:05:05;;;;;;;6.80;2.90;;;;;;;20.63;76.46;100272.48;125115;1092;64381;-79
2021/06/20 03:07:32;;;;;;;4.67;1.80;;;;;;;20.24;78.31;100261.75;125026;1093;64293;-77
2021/06/20 03:09:59;;;;;;;5.47;1.80;;;;;;;19.83;81.70;100261.20;124980;1093;64291;-77
2021/06/20 03:12:26;;;;;;;6.33;1.20;;;;;;;19.52;83.19;100244.54;125016;1092;64301;-78
2021/06/20 03:14:53;;;;;;;2.97;1.60;;;;;;;19.32;84.09;100230.79;124978;1092;64303;-81
2021/06/20 03:17:20;;;;;;;3.60;1.40;;;;;;;19.17;85.74;100235.89;125436;1093;64785;-79
2021/06/20 03:19:49;;;;;;;1.85;0.95;;;;;;;19.05;86.90;100228.72;125585;1093;65017;-80
2021/06/20 03:22:16;;;;;;;3.60;1.20;;;;;;;18.98;87.21;100206.56;125299;1093;64284;-83
2021/06/20 03:24:47;;;;;;;5.27;1.80;;;;;;;18.92;87.72;100181.45;125218;1093;64199;-81
2021/06/20 03:27:16;;;;;;;3.33;1.00;;;;;;;18.94;88.10;100151.66;125547;1093;64279;-81
2021/06/20 03:29:46;;;;;;;3.07;1.27;;;;;;;18.94;88.39;100160.53;125226;1093;65574;-84
2021/06/20 03:32:16;;;;;;;4.20;1.13;;;;;;;18.94;88.58;100167.78;125391;1093;64406;-81
2021/06/20 03:34:43;;;;;;;4.70;1.20;;;;;;;18.93;88.75;100163.45;125426;1093;64288;-81
2021/06/20 03:37:11;;;;;;;2.93;1.13;;;;;;;18.92;88.45;100159.14;125598;1093;64236;-82
2021/06/20 03:39:42;;;;;;;6.30;1.50;;;;;;;18.89;89.83;100208.83;125401;1091;64181;-77
2021/06/20 03:42:09;;;;;;;8.57;2.83;;;;;;;18.82;90.67;100220.77;125357;1093;64258;-78
2021/06/20 03:44:36;;;;;;;6.00;2.60;;;;;;;18.72;92.40;100219.52;124968;1092;64172;-79
2021/06/20 03:47:04;;;;;;;6.80;2.20;;;;;;;18.63;93.09;100190.57;125221;1093;64258;-80
2021/06/20 03:49:31;;;;;;;11.00;3.43;;;;;;;18.54;94.17;100160.59;125307;1093;64293;-80
2021/06/20 03:51:59;;;;;;;10.97;3.77;;;;;;;18.39;95.82;100168.38;125146;1093;64211;-79
2021/06/20 03:54:26;;;;;;;11.13;3.60;;;;;;;18.26;96.98;100156.86;125080;1093;64348;-81
2021/06/20 03:56:54;;;;;;;11.00;3.85;;;;;;;18.20;96.92;100141.70;124899;1092;64327;-77
2021/06/20 03:59:23;;;;;;;14.93;4.87;;;;;;;18.17;97.76;100166.34;125030;1093;64281;-77
2021/06/20 04:01:52;;;;;;;15.27;5.30;;;;;;;18.16;97.06;100196.92;125134;1093;64211;-79
2021/06/20 04:04:20;;;;;;;14.93;4.57;;;;;;;18.15;96.80;100216.78;124966;1093;64458;-81
2021/06/20 04:06:48;;;;;;;8.93;3.60;;;;;;;18.13;97.54;100256.46;125132;1092;64379;-81
2021/06/20 04:09:15;;;;;;;14.87;5.03;;;;;;;18.11;98.00;100282.72;125842;1092;64281;-79
2021/06/20 04:11:42;;;;;;;20.33;5.63;;;;;;;18.11;98.18;100317.62;126356;1093;64278;-80
2021/06/20 04:14:09;;;;;;;18.70;7.27;;;;;;;17.99;100.00;100312.23;126663;1093;62116;-81
2021/06/20 04:16:36;;;;;;;23.95;6.90;;;;;;;17.90;100.00;100309.09;126063;1093;64221;-82
2021/06/20 04:19:03;;;;;;;18.50;5.30;;;;;;;17.83;100.00;100249.37;125037;1092;64432;-78
2021/06/20 04:21:30;;;;;;;18.70;6.07;;;;;;;17.78;100.00;100213.52;125021;1093;64298;-79
2021/06/20 04:23:57;;;;;;;15.27;5.07;;;;;;;17.74;100.00;100199.74;125025;1093;64282;-78
2021/06/20 04:26:25;;;;;;;15.57;5.70;;;;;;;17.72;100.00;100175.86;124876;1091;64301;-80
2021/06/20 04:28:52;;;;;;;17.87;6.30;;;;;;;17.74;100.00;100148.77;124888;1093;64335;-78
2021/06/20 04:31:19;;;;;;;15.77;5.07;;;;;;;17.75;100.00;100138.88;124920;1093;64435;-80
2021/06/20 04:33:46;;;;;;;16.00;5.75;;;;;;;17.79;100.00;100124.75;124975;1092;64384;-79
2021/06/20 04:36:14;;;;;;;16.70;6.10;;;;;;;17.82;100.00;100137.71;125080;1093;64288;-80
2021/06/20 04:38:41;;;;;;;14.27;6.20;;;;;;;17.86;100.00;100144.23;125150;1093;64384;-79
2021/06/20 04:41:12;;;;;;;13.10;6.40;;;;;;;17.90;100.00;100126.61;125056;1093;64375;-80
2021/06/20 04:46:24;;;;;;;18.37;7.00;;;;;;;17.96;100.00;100107.92;125244;1093;64657;-80
2021/06/20 04:48:51;;;;;;;17.13;6.87;;;;;;;17.95;100.00;100106.31;124890;1092;64249;-80
2021/06/20 04:51:19;;;;;;;15.93;6.20;;;;;;;17.94;100.00;100118.92;124966;1093;64275;-81
2021/06/20 04:53:49;;;;;;;21.03;8.50;;;;;;;17.92;100.00;100103.05;124982;1092;64361;-80
2021/06/20 04:56:16;;;;;;;16.80;7.13;;;;;;;17.91;100.00;100084.48;125106;1093;64344;-81
2021/06/20 04:58:43;;;;;;;19.73;6.97;;;;;;;17.91;100.00;100047.77;124963;1093;64297;-80
2021/06/20 05:01:10;;;;;;;16.50;7.77;;;;;;;17.90;100.00;100013.92;125091;1092;64759;-80
2021/06/20 05:03:37;;;;;;;19.13;7.57;;;;;;;17.88;100.00;99994.56;124975;1091;64776;-80
2021/06/20 05:06:05;;;;;;;20.80;7.30;;;;;;;17.89;100.00;99984.64;125135;1093;64289;-81
2021/06/20 05:08:32;;;;;;;28.63;8.50;;;;;;;17.91;100.00;99985.20;125094;1092;64445;-81
2021/06/20 05:10:59;;;;;;;14.67;6.03;;;;;;;17.91;100.00;99998.63;125017;1093;64307;-81
2021/06/20 05:13:27;;;;;;;27.87;8.40;;;;;;;17.91;100.00;100015.56;125000;1093;64393;-80
2021/06/20 05:15:54;;;;;;;21.13;7.33;;;;;;;17.93;100.00;100029.52;125278;1093;64282;-81
2021/06/20 05:18:22;;;;;;;17.50;8.67;;;;;;;17.96;100.00;100027.42;125298;1093;64243;-82
2021/06/20 05:20:49;;;;;;;28.93;8.83;;;;;;;18.00;100.00;100029.41;126533;1092;64225;-82
2021/06/20 05:23:17;;;;;;;39.23;15.03;;;;;;;18.07;100.00;100029.26;125357;1093;64279;-81
2021/06/20 05:25:44;;;;;;;19.03;8.20;;;;;;;18.13;100.00;100028.30;125303;1093;64381;-81
2021/06/20 05:28:11;;;;;;;37.80;16.40;;;;;;;18.24;100.00;100035.47;125242;1093;64384;-81
2021/06/20 05:30:38;;;;;;;23.40;9.05;;;;;;;18.34;100.00;100035.64;125477;1093;64229;-81
2021/06/20 05:33:05;;;;;;;21.30;7.60;;;;;;;18.40;100.00;100046.46;125858;1091;64237;-82
2021/06/20 05:35:32;;;;;;;28.27;9.60;;;;;;;18.49;100.00;100045.83;126143;1093;64281;-82
2021/06/20 05:37:59;;;;;;;19.70;9.87;;;;;;;18.58;100.00;100042.75;127210;1093;64282;-83
2021/06/20 05:40:27;;;;;;;17.90;9.47;;;;;;;18.66;100.00;100061.16;126314;1093;64279;-83
2021/06/20 05:42:54;;;;;;;19.70;9.13;;;;;;;18.74;100.00;100056.19;125575;1093;64258;-84
2021/06/20 05:45:21;;;;;;;29.60;12.03;;;;;;;18.82;100.00;100059.55;125087;1093;64387;-85
2021/06/20 05:47:49;;;;;;;25.63;9.60;;;;;;;18.88;100.00;100051.31;125028;1093;64211;-84
2021/06/20 05:50:16;;;;;;;21.90;10.17;;;;;;;18.95;100.00;100051.14;125255;1092;64307;-83
2021/06/20 05:52:43;;;;;;;24.03;10.03;;;;;;;19.04;100.00;100060.44;125091;1092;64297;-85
2021/06/20 05:55:10;;;;;;;23.17;9.03;;;;;;;19.10;100.00;100072.05;125009;1092;64176;-84
2021/06/20 05:57:38;;;;;;;21.87;10.50;;;;;;;19.12;100.00;100073.42;125240;1092;64297;-84
2021/06/20 06:00:08;;;;;;;17.00;9.63;;;;;;;19.19;100.00;100078.66;125388;1093;64365;-84
2021/06/20 06:02:36;;;;;;;17.67;9.40;;;;;;;19.26;100.00;100075.80;125724;1092;64274;-83
2021/06/20 06:05:05;;;;;;;24.97;10.97;;;;;;;19.31;100.00;100076.66;125187;1092;64303;-84
2021/06/20 06:07:32;;;;;;;19.33;10.60;;;;;;;19.37;100.00;100088.31;125384;1092;64223;-84
2021/06/20 06:10:19;;;;;;;18.13;9.33;;;;;;;19.45;100.00;100079.81;125883;1093;64301;-85
2021/06/20 06:12:47;;;;;;;21.63;9.30;;;;;;;19.48;100.00;100082.00;124932;1092;64378;-81
2021/06/20 06:15:17;;;;;;;18.47;8.43;;;;;;;19.54;100.00;100091.77;124911;1093;64368;-79
2021/06/20 06:17:45;;;;;;;18.10;10.83;;;;;;;19.66;100.00;100085.47;124843;1092;64323;-78
2021/06/20 06:20:14;;;;;;;13.30;9.63;;;;;;;19.77;100.00;100089.94;124881;1093;64284;-80
2021/06/20 06:22:41;;;;;;;17.80;8.20;;;;;;;19.90;100.00;100096.81;124845;1093;64297;-82
2021/06/20 06:25:09;;;;;;;18.17;11.07;;;;;;;20.01;100.00;100087.78;124890;1093;64447;-83
2021/06/20 06:27:36;;;;;;;17.83;9.37;;;;;;;20.10;100.00;100093.53;125521;1093;64293;-82
2021/06/20 06:30:04;;;;;;;19.90;9.73;;;;;;;20.19;100.00;100092.03;125076;1093;64290;-81
2021/06/20 06:32:31;;;;;;;14.90;8.87;;;;;;;20.27;98.91;100099.63;124948;1093;64288;-82
2021/06/20 06:34:58;;;;;;;13.63;7.40;;;;;;;20.37;98.63;100099.73;125032;1093;64284;-82
2021/06/20 06:37:25;;;;;;;12.33;8.77;;;;;;;20.44;97.72;100087.95;124909;1093;64301;-81
2021/06/20 06:39:52;;;;;;;18.57;10.07;;;;;;;20.53;96.30;100078.36;124921;1092;64368;-82
2021/06/20 06:42:25;;;;;;;18.97;7.73;;;;;;;20.65;96.05;100083.59;124828;1093;64269;-81
2021/06/20 06:44:53;;;;;;;18.33;9.57;;;;;;;20.73;94.06;100086.63;125080;1092;64420;-81
2021/06/20 06:47:21;;;;;;;17.37;11.03;;;;;;;20.86;94.25;100089.97;125140;1092;64329;-81
2021/06/20 06:49:48;;;;;;;16.07;8.90;;;;;;;20.97;94.47;100075.48;125221;1093;64297;-81
2021/06/20 06:52:16;;;;;;;15.93;9.43;;;;;;;21.10;94.76;100083.14;124976;1093;64848;-80
2021/06/20 06:54:50;;;;;;;22.10;12.57;;;;;;;21.26;94.02;100088.63;125133;1093;64307;-81
2021/06/20 06:57:19;;;;;;;18.30;10.77;;;;;;;21.36;92.12;100088.69;125019;1092;64295;-80
2021/06/20 06:59:47;;;;;;;14.07;10.17;;;;;;;21.48;91.83;100085.80;125234;1093;64415;-80
2021/06/20 07:02:16;;;;;;;17.90;10.97;;;;;;;21.56;89.83;100078.01;125267;1093;64208;-80
2021/06/20 07:04:43;;;;;;;19.43;10.83;;;;;;;21.69;90.76;100086.70;124924;1093;64883;-80
2021/06/20 07:07:11;;;;;;;18.77;9.83;;;;;;;21.78;88.77;100083.25;125061;1093;64494;-80
2021/06/20 07:09:39;;;;;;;19.40;11.30;;;;;;;21.89;88.86;100077.86;125242;1093;64211;-81
2021/06/20 07:12:06;;;;;;;16.30;10.10;;;;;;;21.96;87.12;100079.25;125270;1093;64311;-80
2021/06/20 07:14:35;;;;;;;16.03;9.73;;;;;;;22.07;88.44;100074.68;125100;1093;64374;-80
2021/06/20 07:17:06;;;;;;;16.73;10.53;;;;;;;22.08;82.43;100072.78;125091;1093;64329;-80
2021/06/20 07:19:34;;;;;;;21.40;10.67;;;;;;;22.14;84.22;100083.36;125644;1093;64293;-82
2021/06/20 07:22:05;;;;;;;16.60;10.10;;;;;;;22.19;85.02;100069.05;125179;1093;64345;-82
2021/06/20 07:24:32;;;;;;;18.23;9.57;;;;;;;22.22;82.94;100079.31;125209;1093;64432;-81
2021/06/20 07:26:59;;;;;;;16.80;8.93;;;;;;;22.28;84.44;100101.78;125090;1093;64371;-84
2021/06/20 07:29:27;;;;;;;13.90;9.67;;;;;;;22.37;82.02;100102.88;124966;1093;64254;-76
2021/06/20 07:31:54;;;;;;;14.70;9.80;;;;;;;22.51;83.40;100097.77;124907;1093;64301;-75
2021/06/20 07:34:21;;;;;;;13.07;8.50;;;;;;;22.57;81.02;100097.50;124836;1092;64632;-74
2021/06/20 07:36:48;;;;;;;15.87;9.80;;;;;;;22.64;79.79;100083.71;124843;1093;64342;-77
2021/06/20 07:39:16;;;;;;;14.90;9.93;;;;;;;22.73;78.79;100106.41;125060;1093;64304;-73
2021/06/20 07:41:44;;;;;;;16.57;9.77;;;;;;;22.84;79.40;100106.42;124848;1093;64948;-74
2021/06/20 07:44:11;;;;;;;13.43;9.17;;;;;;;22.91;78.30;100109.66;124868;1093;64287;-74
2021/06/20 07:46:37;;;;;;;13.70;8.30;;;;;;;;;;124852;1093;64307;-74
2021/06/20 07:49:04;;;;;;;15.20;9.07;;;;;;;23.04;73.97;100121.88;124693;1093;64454;-75
2021/06/20 07:51:32;;;;;;;13.77;9.83;;;;;;;23.07;73.48;100129.44;124640;1093;64371;-75
2021/06/20 07:53:59;;;;;;;13.67;9.37;;;;;;;23.13;72.87;100139.17;124845;1093;64291;-75
2021/06/20 07:56:27;;;;;;;15.05;8.80;;;;;;;23.18;73.01;100128.33;124873;1093;64259;-74
2021/06/20 07:58:56;;;;;;;15.27;9.57;;;;;;;23.25;73.75;100144.28;124928;1093;64259;-74
2021/06/20 08:01:25;;;;;;;14.17;9.17;;;;;;;23.31;72.22;100137.78;124870;1092;64336;-74
2021/06/20 08:03:52;;;;;;;16.30;10.47;;;;;;;23.33;72.21;100132.91;124840;1092;64234;-74
2021/06/20 08:06:23;;;;;;;13.40;9.43;;;;;;;23.42;71.66;100136.70;124865;1093;64281;-74
2021/06/20 08:08:59;;;;;;;15.70;10.97;;;;;;;23.52;71.88;100128.53;124863;1093;64288;-75
2021/06/20 08:11:27;;;;;;;16.10;11.05;;;;;;;23.67;73.29;100135.80;124818;1092;64285;-74
2021/06/20 08:13:59;;;;;;;15.53;8.97;;;;;;;23.83;71.78;100136.59;124822;1093;64422;-73
2021/06/20 08:16:27;;;;;;;18.07;10.10;;;;;;;23.90;69.39;100149.84;124805;1093;64796;-74
2021/06/20 08:18:54;;;;;;;17.30;9.70;;;;;;;23.91;69.83;100144.16;124923;1093;64329;-74
2021/06/20 08:21:22;;;;;;;13.75;8.60;;;;;;;23.92;69.58;100137.63;124902;1093;64307;-74
2021/06/20 08:23:49;;;;;;;18.77;9.20;;;;;;;23.89;67.39;100132.78;124900;1093;64284;-74
2021/06/20 08:26:18;;;;;;;14.67;8.17;;;;;;;23.90;68.26;100141.72;124753;1093;64339;-77
2021/06/20 08:28:45;;;;;;;16.55;9.10;;;;;;;23.95;68.56;100133.55;124871;1093;64310;-74
2021/06/20 08:31:13;;;;;;;13.07;9.93;;;;;;;24.04;67.05;100155.48;124885;1093;64378;-73
2021/06/20 08:33:40;;;;;;;12.57;7.57;;;;;;;24.11;67.05;100153.27;124838;1093;64281;-73
2021/06/20 08:36:07;;;;;;;13.20;9.40;;;;;;;24.17;66.45;100158.39;124892;1093;65858;-73
2021/06/20 08:38:34;;;;;;;13.73;9.03;;;;;;;24.27;65.48;100160.25;124860;1093;64425;-73
2021/06/20 08:41:02;;;;;;;13.60;8.85;;;;;;;24.37;66.24;100168.30;124894;1093;64239;-73
2021/06/20 08:43:30;;;;;;;12.80;8.70;;;;;;;24.49;65.24;100172.63;124976;1093;64285;-73
2021/06/20 08:45:58;;;;;;;14.40;9.20;;;;;;;24.49;65.09;100168.00;124900;1093;64741;-73
2021/06/20 08:48:25;;;;;;;10.60;8.85;;;;;;;24.66;64.29;100169.53;124832;1093;65360;-73
2021/06/20 08:50:52;;;;;;;10.57;7.60;;;;;;;24.78;63.15;100181.65;124855;1093;64384;-72
2021/06/20 08:53:21;;;;;;;12.45;7.70;;;;;;;24.96;61.66;100187.48;124886;1093;64288;-74
2021/06/20 08:55:49;;;;;;;13.85;8.00;;;;;;;24.97;61.03;100175.52;125005;1092;64224;-74
2021/06/20 08:58:21;;;;;;;10.00;7.13;;;;;;;25.10;60.07;100193.89;124858;1093;65455;-74
2021/06/20 09:00:50;;;;;;;10.77;6.30;;;;;;;25.31;59.35;100182.86;124632;1093;64307;-75
2021/06/20 09:03:18;;;;;;;8.17;6.73;;;;;;;25.41;58.80;100177.34;124804;1093;64375;-73
2021/06/20 09:06:03;;;;;;;9.23;6.70;;;;;;;25.45;59.61;100164.01;124612;1093;64390;-73
2021/06/20 09:08:31;;;;;;;12.10;6.53;;;;;;;25.50;58.49;100163.94;124862;1093;64313;-74
2021/06/20 09:10:58;;;;;;;6.77;5.23;;;;;;;25.50;59.53;100159.34;124873;1093;64282;-74
2021/06/20 09:13:35;;;;;;;7.63;6.47;;;;;;;25.56;59.57;100173.66;124795;1093;64301;-73
2021/06/20 09:16:06;;;;;;;9.10;5.33;;;;;;;25.61;59.80;100163.56;124953;1093;64285;-74
2021/06/20 09:18:35;;;;;;;5.57;5.03;;;;;;;25.63;58.67;100169.52;124961;1092;64326;-74
2021/06/20 09:21:12;;;;;;;7.37;5.00;;;;;;;25.39;58.13;100171.38;124870;1093;64310;-74
2021/06/20 09:23:41;;;;;;;7.93;4.90;;;;;;;25.26;58.28;100174.78;124830;1093;64175;-75
2021/06/20 09:26:09;;;;;;;9.07;6.23;;;;;;;25.26;57.77;100158.49;124937;1093;65114;-76
2021/06/20 09:28:36;;;;;;;6.47;4.60;;;;;;;25.29;58.09;100169.59;124819;1093;64307;-74
2021/06/20 09:31:05;;;;;;;5.30;4.77;;;;;;;25.34;55.03;100166.02;124888;1093;64374;-74
2021/06/20 09:33:35;;;;;;;5.67;4.73;;;;;;;25.30;54.76;100171.20;124835;1093;64378;-73
2021/06/20 09:36:03;;;;;;;5.13;4.63;;;;;;;25.42;55.26;100173.55;124997;1092;64307;-73
2021/06/20 09:38:35;;;;;;;6.27;3.97;;;;;;;25.50;55.17;100172.92;124960;1093;64290;-75
2021/06/20 09:41:08;;;;;;;6.00;5.10;;;;;;;25.53;54.25;100177.77;125321;1093;64399;-73
2021/06/20 09:43:39;;;;;;;5.00;4.13;;;;;;;25.58;52.29;100201.34;124937;1093;64352;-73
2021/06/20 09:46:10;;;;;;;6.33;4.90;;;;;;;25.55;53.16;100194.59;124892;1093;64286;-73
2021/06/20 09:48:37;;;;;;;5.63;4.67;;;;;;;25.71;53.22;100191.70;125044;1093;64277;-73
2021/06/20 09:51:17;;;;;;;4.37;3.97;;;;;;;25.84;52.52;100185.56;124874;1093;64284;-74
2021/06/20 09:53:47;;;;;;;5.23;4.10;;;;;;;25.94;52.32;100188.20;125123;1093;64801;-75
2021/06/20 09:56:21;;;;;;;4.93;3.40;;;;;;;26.01;51.25;100174.25;124903;1093;64327;-73
2021/06/20 09:59:00;;;;;;;4.88;4.28;;;;;;;26.10;52.21;100186.13;124701;1093;64394;-72
2021/06/20 10:01:29;;;;;;;5.67;3.90;;;;;;;26.29;50.99;100199.75;124615;1093;64284;-74
2021/06/20 10:03:57;;;;;;;3.93;3.20;;;;;;;26.42;50.59;100184.62;124924;1093;64371;-73
2021/06/20 10:06:25;;;;;;;5.83;2.80;;;;;;;26.63;51.40;100175.09;124848;1092;65398;-73
2021/06/20 10:08:52;;;;;;;4.00;2.50;;;;;;;26.74;51.82;100194.78;124977;1093;64310;-73
2021/06/20 10:11:19;;;;;;;4.63;2.97;;;;;;;26.79;50.17;100183.81;124819;1093;64282;-74
2021/06/20 10:13:47;;;;;;;6.43;3.27;;;;;;;26.77;50.70;100185.21;124919;1093;64397;-76
2021/06/20 10:16:29;;;;;;;5.20;3.25;;;;;;;26.77;50.05;100188.73;124985;1093;64326;-73
2021/06/20 10:18:56;;;;;;;3.50;2.30;;;;;;;26.70;50.70;100174.70;124865;1093;64300;-73
2021/06/20 10:21:38;;;;;;;5.67;3.00;;;;;;;26.78;51.21;100176.77;124911;1093;64296;-74
2021/06/20 10:24:08;;;;;;;3.50;2.97;;;;;;;26.70;50.78;100180.15;124865;1092;64230;-74
2021/06/20 10:26:37;;;;;;;6.53;3.70;;;;;;;26.80;50.03;100179.20;124827;1093;64365;-74
2021/06/20 10:29:22;;;;;;;6.47;3.40;;;;;;;26.93;49.96;100183.08;124772;1093;64314;-74
2021/06/20 10:31:51;;;;;;;6.93;3.27;;;;;;;27.12;50.34;100178.39;124843;1093;64412;-73
2021/06/20 10:34:22;;;;;;;5.60;3.60;;;;;;;27.35;51.52;100168.50;124979;1093;64389;-73
2021/06/20 10:36:53;;;;;;;5.83;3.27;;;;;;;27.52;51.49;100162.47;124835;1093;64394;-73
2021/06/20 10:39:21;;;;;;;5.13;3.20;;;;;;;27.62;49.96;100154.07;124996;1091;64249;-74
2021/06/20 10:41:49;;;;;;;5.77;3.27;;;;;;;27.64;49.74;100149.13;124889;1093;64285;-73
2021/06/20 10:44:16;;;;;;;5.77;3.10;;;;;;;27.74;50.90;100152.78;124786;1093;64304;-73
2021/06/20 10:46:55;;;;;;;6.83;3.37;;;;;;;27.90;50.44;100156.02;125223;1093;64284;-74
2021/06/20 10:49:22;;;;;;;9.33;3.57;;;;;;;28.01;49.48;100152.79;124993;1092;64326;-73
2021/06/20 10:51:49;;;;;;;4.23;3.30;;;;;;;27.98;49.19;100161.56;124898;1093;64213;-73
2021/06/20 10:54:28;;;;;;;4.83;2.93;;;;;;;28.04;48.68;100160.34;124670;1093;64354;-73
2021/06/20 10:57:01;;;;;;;5.67;3.00;;;;;;;28.08;48.30;100165.20;124778;1093;64389;-74
2021/06/20 10:59:28;;;;;;;4.23;2.90;;;;;;;28.29;49.17;100163.64;124960;1092;65407;-73
2021/06/20 11:01:56;;;;;;;5.40;3.35;;;;;;;28.34;48.08;100155.34;124745;1093;64297;-73
2021/06/20 11:04:23;;;;;;;7.23;3.50;;;;;;;28.28;48.15;100162.02;125824;1092;64313;-75
2021/06/20 11:06:57;;;;;;;5.20;2.77;;;;;;;28.35;48.79;100161.59;124911;1093;64288;-73
2021/06/20 11:09:35;;;;;;;6.87;3.27;;;;;;;28.46;47.38;100160.27;124880;1093;64419;-74
2021/06/20 11:12:14;;;;;;;6.37;2.90;;;;;;;28.73;48.22;100153.91;124786;1093;64294;-73
2021/06/20 11:14:46;;;;;;;3.50;2.60;;;;;;;29.02;47.96;100147.20;125024;1093;64323;-73
2021/06/20 11:17:13;;;;;;;3.30;3.00;;;;;;;29.04;44.68;100144.97;124710;1093;64377;-74
2021/06/20 11:19:40;;;;;;;3.37;2.10;;;;;;;28.94;47.28;100154.22;124836;1093;64292;-73
2021/06/20 11:22:11;;;;;;;4.07;2.20;;;;;;;29.06;46.11;100153.66;124598;1092;64444;-73